JYM weather

Hillsdale Municipal Airport
Hillsdale, Michigan, United States

Public forecast

Using degrees Fahrenheit for public forecast. Weather courtesy of forecast.io.

METAR (pilot weather report)

Retrieved 2019/05/21 01:36 UTC (21 minutes ago):

KJYM 210136Z AUTO 32005KT 10SM OVC031 08/04 A3010 RMK AO2 T00820042

TAF (pilot weather forecast)

Forecast is more than 12 hours old.

Closest forecast is Jackson County Reynolds Field, 21.1 nm (39.1 km) NNE. Retrieved 2019/05/20 00:36 UTC (1 day ago):

TAF KJXN 202335Z 2100/2124 30006KT P6SM BKN025 FM210300 VRB03KT P6SM FEW250 FM212200 11007KT P6SM BKN150